sensor_id;sensor_type;location;lat;lon;timestamp;temperature;humidity
12434;DHT22;6281;49.038;8.372;2023-03-14T00:00:06;12.10;99.90
12434;DHT22;6281;49.038;8.372;2023-03-14T00:02:33;12.20;99.90
12434;DHT22;6281;49.038;8.372;2023-03-14T00:05:01;12.30;99.90
12434;DHT22;6281;49.038;8.372;2023-03-14T00:07:32;12.20;99.90
12434;DHT22;6281;49.038;8.372;2023-03-14T00:10:01;12.20;99.90
12434;DHT22;6281;49.038;8.372;2023-03-14T00:12:31;12.30;99.90
12434;DHT22;6281;49.038;8.372;2023-03-14T00:14:58;12.20;99.90
12434;DHT22;6281;49.038;8.372;2023-03-14T00:17:28;12.30;99.90
12434;DHT22;6281;49.038;8.372;2023-03-14T00:19:56;12.30;99.90
12434;DHT22;6281;49.038;8.372;2023-03-14T00:22:29;12.10;99.90
12434;DHT22;6281;49.038;8.372;2023-03-14T00:24:56;12.10;99.90
12434;DHT22;6281;49.038;8.372;2023-03-14T00:27:23;12.30;99.90
12434;DHT22;6281;49.038;8.372;2023-03-14T00:29:52;12.20;99.90
12434;DHT22;6281;49.038;8.372;2023-03-14T00:32:18;12.20;99.90
12434;DHT22;6281;49.038;8.372;2023-03-14T00:34:45;12.30;99.90
12434;DHT22;6281;49.038;8.372;2023-03-14T00:37:12;12.20;99.90
12434;DHT22;6281;49.038;8.372;2023-03-14T00:39:39;12.20;99.90
12434;DHT22;6281;49.038;8.372;2023-03-14T00:42:06;12.20;99.90
12434;DHT22;6281;49.038;8.372;2023-03-14T00:44:33;12.20;99.90
12434;DHT22;6281;49.038;8.372;2023-03-14T00:47:02;12.20;99.90
12434;DHT22;6281;49.038;8.372;2023-03-14T00:49:28;12.20;99.90
12434;DHT22;6281;49.038;8.372;2023-03-14T00:51:55;12.20;99.90
12434;DHT22;6281;49.038;8.372;2023-03-14T00:54:22;12.20;99.90
12434;DHT22;6281;49.038;8.372;2023-03-14T00:56:49;12.20;99.90
12434;DHT22;6281;49.038;8.372;2023-03-14T00:59:16;12.20;99.90
12434;DHT22;6281;49.038;8.372;2023-03-14T01:01:43;12.10;99.90
12434;DHT22;6281;49.038;8.372;2023-03-14T01:04:12;12.10;99.90
12434;DHT22;6281;49.038;8.372;2023-03-14T01:06:39;12.20;99.90
12434;DHT22;6281;49.038;8.372;2023-03-14T01:09:06;12.10;99.90
12434;DHT22;6281;49.038;8.372;2023-03-14T01:11:35;12.10;99.90
12434;DHT22;6281;49.038;8.372;2023-03-14T01:14:03;12.10;99.90
12434;DHT22;6281;49.038;8.372;2023-03-14T01:16:32;12.10;99.90
12434;DHT22;6281;49.038;8.372;2023-03-14T01:18:59;12.00;99.90
12434;DHT22;6281;49.038;8.372;2023-03-14T01:21:30;12.10;99.90
12434;DHT22;6281;49.038;8.372;2023-03-14T01:23:58;11.90;99.90
12434;DHT22;6281;49.038;8.372;2023-03-14T01:26:27;12.00;99.90
12434;DHT22;6281;49.038;8.372;2023-03-14T01:28:56;11.90;99.90
12434;DHT22;6281;49.038;8.372;2023-03-14T01:31:24;12.00;99.90
12434;DHT22;6281;49.038;8.372;2023-03-14T01:33:52;11.80;99.90
12434;DHT22;6281;49.038;8.372;2023-03-14T01:36:19;11.70;99.90
12434;DHT22;6281;49.038;8.372;2023-03-14T01:38:47;11.80;99.90
12434;DHT22;6281;49.038;8.372;2023-03-14T01:41:16;11.60;99.90
12434;DHT22;6281;49.038;8.372;2023-03-14T01:43:43;11.60;99.90
12434;DHT22;6281;49.038;8.372;2023-03-14T01:46:23;11.60;99.90
12434;DHT22;6281;49.038;8.372;2023-03-14T01:48:55;11.50;99.90
12434;DHT22;6281;49.038;8.372;2023-03-14T01:51:27;11.50;99.90
12434;DHT22;6281;49.038;8.372;2023-03-14T01:54:01;11.50;99.90
12434;DHT22;6281;49.038;8.372;2023-03-14T01:56:30;11.50;99.90
12434;DHT22;6281;49.038;8.372;2023-03-14T01:58:58;11.50;99.90
12434;DHT22;6281;49.038;8.372;2023-03-14T02:01:26;11.50;99.90
12434;DHT22;6281;49.038;8.372;2023-03-14T02:03:55;11.50;99.90
12434;DHT22;6281;49.038;8.372;2023-03-14T02:06:24;11.40;99.90
12434;DHT22;6281;49.038;8.372;2023-03-14T02:08:52;11.40;99.90
12434;DHT22;6281;49.038;8.372;2023-03-14T02:11:21;11.40;99.90
12434;DHT22;6281;49.038;8.372;2023-03-14T02:13:48;11.40;99.90
12434;DHT22;6281;49.038;8.372;2023-03-14T02:16:16;11.30;99.90
12434;DHT22;6281;49.038;8.372;2023-03-14T02:18:43;11.30;99.90
12434;DHT22;6281;49.038;8.372;2023-03-14T02:21:21;11.40;99.90
12434;DHT22;6281;49.038;8.372;2023-03-14T02:23:56;11.30;99.90
12434;DHT22;6281;49.038;8.372;2023-03-14T02:26:30;11.30;99.90
12434;DHT22;6281;49.038;8.372;2023-03-14T02:29:00;11.20;99.90
12434;DHT22;6281;49.038;8.372;2023-03-14T02:31:27;11.20;99.90
12434;DHT22;6281;49.038;8.372;2023-03-14T02:33:55;11.40;99.90
12434;DHT22;6281;49.038;8.372;2023-03-14T02:36:23;11.30;99.90
12434;DHT22;6281;49.038;8.372;2023-03-14T02:38:53;11.30;99.90
12434;DHT22;6281;49.038;8.372;2023-03-14T02:41:22;11.30;99.90
12434;DHT22;6281;49.038;8.372;2023-03-14T02:43:49;11.30;99.90
12434;DHT22;6281;49.038;8.372;2023-03-14T02:46:19;11.20;99.90
12434;DHT22;6281;49.038;8.372;2023-03-14T02:48:48;11.30;99.90
12434;DHT22;6281;49.038;8.372;2023-03-14T02:51:17;11.30;99.90
12434;DHT22;6281;49.038;8.372;2023-03-14T02:53:44;11.20;99.90
12434;DHT22;6281;49.038;8.372;2023-03-14T02:56:11;11.30;99.90
12434;DHT22;6281;49.038;8.372;2023-03-14T02:58:38;11.30;99.90
12434;DHT22;6281;49.038;8.372;2023-03-14T03:01:06;11.30;99.90
12434;DHT22;6281;49.038;8.372;2023-03-14T03:03:34;11.20;99.90
12434;DHT22;6281;49.038;8.372;2023-03-14T03:06:01;11.30;99.90
12434;DHT22;6281;49.038;8.372;2023-03-14T03:08:29;11.20;99.90
12434;DHT22;6281;49.038;8.372;2023-03-14T03:10:57;11.20;99.90
12434;DHT22;6281;49.038;8.372;2023-03-14T03:13:24;11.20;99.90
12434;DHT22;6281;49.038;8.372;2023-03-14T03:15:52;11.20;99.90
12434;DHT22;6281;49.038;8.372;2023-03-14T03:18:19;11.10;99.90
12434;DHT22;6281;49.038;8.372;2023-03-14T03:20:47;11.20;99.90
12434;DHT22;6281;49.038;8.372;2023-03-14T03:23:14;11.10;99.90
12434;DHT22;6281;49.038;8.372;2023-03-14T03:25:41;11.20;99.90
12434;DHT22;6281;49.038;8.372;2023-03-14T03:28:08;11.20;99.90
12434;DHT22;6281;49.038;8.372;2023-03-14T03:30:37;11.20;99.90
12434;DHT22;6281;49.038;8.372;2023-03-14T03:33:04;11.20;99.90
12434;DHT22;6281;49.038;8.372;2023-03-14T03:35:31;11.20;99.90
12434;DHT22;6281;49.038;8.372;2023-03-14T03:37:59;11.20;99.90
12434;DHT22;6281;49.038;8.372;2023-03-14T03:40:26;11.20;99.90
12434;DHT22;6281;49.038;8.372;2023-03-14T03:42:53;11.20;99.90
12434;DHT22;6281;49.038;8.372;2023-03-14T03:45:20;11.20;99.90
12434;DHT22;6281;49.038;8.372;2023-03-14T03:47:47;11.20;99.90
12434;DHT22;6281;49.038;8.372;2023-03-14T03:50:14;11.10;99.90
12434;DHT22;6281;49.038;8.372;2023-03-14T03:52:41;11.10;99.90
12434;DHT22;6281;49.038;8.372;2023-03-14T03:55:09;11.00;99.90
12434;DHT22;6281;49.038;8.372;2023-03-14T03:57:36;11.10;99.90
12434;DHT22;6281;49.038;8.372;2023-03-14T04:00:05;11.10;99.90
12434;DHT22;6281;49.038;8.372;2023-03-14T04:02:33;11.20;99.90
12434;DHT22;6281;49.038;8.372;2023-03-14T04:05:00;11.30;99.90
12434;DHT22;6281;49.038;8.372;2023-03-14T04:07:27;11.40;99.90
12434;DHT22;6281;49.038;8.372;2023-03-14T04:09:54;11.40;99.90
12434;DHT22;6281;49.038;8.372;2023-03-14T04:12:22;11.20;99.90
12434;DHT22;6281;49.038;8.372;2023-03-14T04:14:49;11.20;99.90
12434;DHT22;6281;49.038;8.372;2023-03-14T04:17:16;11.10;99.90
12434;DHT22;6281;49.038;8.372;2023-03-14T04:19:43;11.10;99.90
12434;DHT22;6281;49.038;8.372;2023-03-14T04:22:10;11.10;99.90
12434;DHT22;6281;49.038;8.372;2023-03-14T04:24:37;11.20;99.90
12434;DHT22;6281;49.038;8.372;2023-03-14T04:27:04;11.20;99.90
12434;DHT22;6281;49.038;8.372;2023-03-14T04:29:32;11.20;99.90
12434;DHT22;6281;49.038;8.372;2023-03-14T04:31:59;11.20;99.90
12434;DHT22;6281;49.038;8.372;2023-03-14T04:34:26;11.10;99.90
12434;DHT22;6281;49.038;8.372;2023-03-14T04:36:53;11.00;99.90
12434;DHT22;6281;49.038;8.372;2023-03-14T04:39:20;11.10;99.90
12434;DHT22;6281;49.038;8.372;2023-03-14T04:41:46;11.10;99.90
12434;DHT22;6281;49.038;8.372;2023-03-14T04:44:13;11.10;99.90
12434;DHT22;6281;49.038;8.372;2023-03-14T04:46:42;11.10;99.90
12434;DHT22;6281;49.038;8.372;2023-03-14T04:49:09;11.00;99.90
12434;DHT22;6281;49.038;8.372;2023-03-14T04:51:36;10.90;99.90
12434;DHT22;6281;49.038;8.372;2023-03-14T04:54:03;11.00;99.90
12434;DHT22;6281;49.038;8.372;2023-03-14T04:56:30;11.10;99.90
12434;DHT22;6281;49.038;8.372;2023-03-14T04:58:57;11.10;99.90
12434;DHT22;6281;49.038;8.372;2023-03-14T05:01:24;11.10;99.90
12434;DHT22;6281;49.038;8.372;2023-03-14T05:03:52;11.10;99.90
12434;DHT22;6281;49.038;8.372;2023-03-14T05:06:19;11.20;99.90
12434;DHT22;6281;49.038;8.372;2023-03-14T05:08:46;11.20;99.90
12434;DHT22;6281;49.038;8.372;2023-03-14T05:11:13;11.20;99.90
12434;DHT22;6281;49.038;8.372;2023-03-14T05:13:40;11.30;99.90
12434;DHT22;6281;49.038;8.372;2023-03-14T05:16:09;11.30;99.90
12434;DHT22;6281;49.038;8.372;2023-03-14T05:18:36;11.30;99.90
12434;DHT22;6281;49.038;8.372;2023-03-14T05:21:05;11.30;99.90
12434;DHT22;6281;49.038;8.372;2023-03-14T05:23:32;11.30;99.90
12434;DHT22;6281;49.038;8.372;2023-03-14T05:25:59;11.30;99.90
12434;DHT22;6281;49.038;8.372;2023-03-14T05:28:26;11.30;99.90
12434;DHT22;6281;49.038;8.372;2023-03-14T05:30:53;11.30;99.90
12434;DHT22;6281;49.038;8.372;2023-03-14T05:33:20;11.30;99.90
12434;DHT22;6281;49.038;8.372;2023-03-14T05:35:47;11.30;99.90
12434;DHT22;6281;49.038;8.372;2023-03-14T05:38:16;11.20;99.90
12434;DHT22;6281;49.038;8.372;2023-03-14T05:40:44;11.30;99.90
12434;DHT22;6281;49.038;8.372;2023-03-14T05:43:11;11.30;99.90
12434;DHT22;6281;49.038;8.372;2023-03-14T05:45:38;11.20;99.90
12434;DHT22;6281;49.038;8.372;2023-03-14T05:48:05;11.20;99.90
12434;DHT22;6281;49.038;8.372;2023-03-14T05:50:32;11.10;99.90
12434;DHT22;6281;49.038;8.372;2023-03-14T05:52:59;11.10;99.90
12434;DHT22;6281;49.038;8.372;2023-03-14T05:55:28;11.00;99.90
12434;DHT22;6281;49.038;8.372;2023-03-14T05:57:55;10.90;99.90
12434;DHT22;6281;49.038;8.372;2023-03-14T06:00:22;10.90;99.90
12434;DHT22;6281;49.038;8.372;2023-03-14T06:02:49;10.80;99.90
12434;DHT22;6281;49.038;8.372;2023-03-14T06:05:16;11.00;99.90
12434;DHT22;6281;49.038;8.372;2023-03-14T06:07:43;10.90;99.90
12434;DHT22;6281;49.038;8.372;2023-03-14T06:10:10;10.90;99.90
12434;DHT22;6281;49.038;8.372;2023-03-14T06:12:39;10.90;99.90
12434;DHT22;6281;49.038;8.372;2023-03-14T06:15:07;10.90;99.90
12434;DHT22;6281;49.038;8.372;2023-03-14T06:17:34;10.80;99.90
12434;DHT22;6281;49.038;8.372;2023-03-14T06:20:01;10.70;99.90
12434;DHT22;6281;49.038;8.372;2023-03-14T06:22:28;10.70;99.90
12434;DHT22;6281;49.038;8.372;2023-03-14T06:24:55;10.70;99.90
12434;DHT22;6281;49.038;8.372;2023-03-14T06:27:22;10.80;99.90
12434;DHT22;6281;49.038;8.372;2023-03-14T06:29:50;10.80;99.90
12434;DHT22;6281;49.038;8.372;2023-03-14T06:32:17;10.80;99.90
12434;DHT22;6281;49.038;8.372;2023-03-14T06:34:45;10.80;99.90
12434;DHT22;6281;49.038;8.372;2023-03-14T06:37:12;10.80;99.90
12434;DHT22;6281;49.038;8.372;2023-03-14T06:39:40;10.80;99.90
12434;DHT22;6281;49.038;8.372;2023-03-14T06:42:07;10.80;99.90
12434;DHT22;6281;49.038;8.372;2023-03-14T06:44:34;10.90;99.90
12434;DHT22;6281;49.038;8.372;2023-03-14T06:47:02;10.90;99.90
12434;DHT22;6281;49.038;8.372;2023-03-14T06:49:29;11.00;99.90
12434;DHT22;6281;49.038;8.372;2023-03-14T06:51:56;11.00;99.90
12434;DHT22;6281;49.038;8.372;2023-03-14T06:54:23;11.00;99.90
12434;DHT22;6281;49.038;8.372;2023-03-14T06:56:50;11.10;99.90
12434;DHT22;6281;49.038;8.372;2023-03-14T06:59:17;11.10;99.90
12434;DHT22;6281;49.038;8.372;2023-03-14T07:01:44;11.20;99.90
12434;DHT22;6281;49.038;8.372;2023-03-14T07:04:12;11.20;99.90
12434;DHT22;6281;49.038;8.372;2023-03-14T07:06:39;11.30;99.90
12434;DHT22;6281;49.038;8.372;2023-03-14T07:09:09;11.20;99.90
12434;DHT22;6281;49.038;8.372;2023-03-14T07:11:37;11.30;99.90
12434;DHT22;6281;49.038;8.372;2023-03-14T07:14:04;11.40;99.90
12434;DHT22;6281;49.038;8.372;2023-03-14T07:16:31;11.40;99.90
12434;DHT22;6281;49.038;8.372;2023-03-14T07:18:58;11.40;99.90
12434;DHT22;6281;49.038;8.372;2023-03-14T07:21:27;11.40;99.90
12434;DHT22;6281;49.038;8.372;2023-03-14T07:23:54;11.50;99.90
12434;DHT22;6281;49.038;8.372;2023-03-14T07:26:21;11.50;99.90
12434;DHT22;6281;49.038;8.372;2023-03-14T07:28:48;11.50;99.90
12434;DHT22;6281;49.038;8.372;2023-03-14T07:31:15;11.50;99.90
12434;DHT22;6281;49.038;8.372;2023-03-14T07:33:42;11.60;99.90
12434;DHT22;6281;49.038;8.372;2023-03-14T07:36:09;11.60;99.90
12434;DHT22;6281;49.038;8.372;2023-03-14T07:38:38;11.70;99.90
12434;DHT22;6281;49.038;8.372;2023-03-14T07:41:05;11.70;99.90
12434;DHT22;6281;49.038;8.372;2023-03-14T07:43:33;11.70;99.90
12434;DHT22;6281;49.038;8.372;2023-03-14T07:46:00;11.80;99.90
12434;DHT22;6281;49.038;8.372;2023-03-14T07:48:27;11.80;99.90
12434;DHT22;6281;49.038;8.372;2023-03-14T07:50:55;11.80;99.90
12434;DHT22;6281;49.038;8.372;2023-03-14T07:53:22;12.00;99.90
12434;DHT22;6281;49.038;8.372;2023-03-14T07:55:52;12.00;99.90
12434;DHT22;6281;49.038;8.372;2023-03-14T07:58:20;12.00;99.90
12434;DHT22;6281;49.038;8.372;2023-03-14T08:00:48;11.70;99.90
12434;DHT22;6281;49.038;8.372;2023-03-14T08:03:15;11.70;99.90
12434;DHT22;6281;49.038;8.372;2023-03-14T08:05:43;11.80;99.90
12434;DHT22;6281;49.038;8.372;2023-03-14T08:08:10;11.70;99.90
12434;DHT22;6281;49.038;8.372;2023-03-14T08:10:37;11.70;99.90
12434;DHT22;6281;49.038;8.372;2023-03-14T08:13:05;11.70;99.90
12434;DHT22;6281;49.038;8.372;2023-03-14T08:15:32;11.80;99.90
12434;DHT22;6281;49.038;8.372;2023-03-14T08:17:59;11.80;99.90
12434;DHT22;6281;49.038;8.372;2023-03-14T08:20:28;11.50;99.90
12434;DHT22;6281;49.038;8.372;2023-03-14T08:22:56;11.40;99.90
12434;DHT22;6281;49.038;8.372;2023-03-14T08:25:23;11.50;99.90
12434;DHT22;6281;49.038;8.372;2023-03-14T08:27:51;11.50;99.90
12434;DHT22;6281;49.038;8.372;2023-03-14T08:30:21;11.50;99.90
12434;DHT22;6281;49.038;8.372;2023-03-14T08:32:48;11.60;99.90
12434;DHT22;6281;49.038;8.372;2023-03-14T08:35:15;11.60;99.90
12434;DHT22;6281;49.038;8.372;2023-03-14T08:37:42;11.60;99.90
12434;DHT22;6281;49.038;8.372;2023-03-14T08:40:10;11.50;99.90
12434;DHT22;6281;49.038;8.372;2023-03-14T08:42:37;11.60;99.90
12434;DHT22;6281;49.038;8.372;2023-03-14T08:45:05;11.60;99.90
12434;DHT22;6281;49.038;8.372;2023-03-14T08:47:34;11.70;99.90
12434;DHT22;6281;49.038;8.372;2023-03-14T08:50:01;11.60;99.90
12434;DHT22;6281;49.038;8.372;2023-03-14T08:52:29;11.70;99.90
12434;DHT22;6281;49.038;8.372;2023-03-14T08:54:56;11.80;99.90
12434;DHT22;6281;49.038;8.372;2023-03-14T08:57:23;11.80;99.90
12434;DHT22;6281;49.038;8.372;2023-03-14T08:59:52;11.80;99.90
12434;DHT22;6281;49.038;8.372;2023-03-14T09:02:19;11.80;99.90
12434;DHT22;6281;49.038;8.372;2023-03-14T09:04:49;11.80;99.90
12434;DHT22;6281;49.038;8.372;2023-03-14T09:07:16;11.80;99.90
12434;DHT22;6281;49.038;8.372;2023-03-14T09:09:43;11.90;99.90
12434;DHT22;6281;49.038;8.372;2023-03-14T09:12:10;11.90;99.90
12434;DHT22;6281;49.038;8.372;2023-03-14T09:14:37;12.00;99.90
12434;DHT22;6281;49.038;8.372;2023-03-14T09:17:04;12.10;99.90
12434;DHT22;6281;49.038;8.372;2023-03-14T09:19:31;12.20;99.90
12434;DHT22;6281;49.038;8.372;2023-03-14T09:21:59;12.30;99.90
12434;DHT22;6281;49.038;8.372;2023-03-14T09:24:25;12.30;99.90
12434;DHT22;6281;49.038;8.372;2023-03-14T09:26:52;12.30;99.90
12434;DHT22;6281;49.038;8.372;2023-03-14T09:29:21;12.20;99.90
12434;DHT22;6281;49.038;8.372;2023-03-14T09:31:48;12.10;99.90
12434;DHT22;6281;49.038;8.372;2023-03-14T09:34:14;12.20;99.90
12434;DHT22;6281;49.038;8.372;2023-03-14T09:36:41;12.20;99.90
12434;DHT22;6281;49.038;8.372;2023-03-14T09:39:11;12.40;99.90
12434;DHT22;6281;49.038;8.372;2023-03-14T09:41:40;12.10;99.90
12434;DHT22;6281;49.038;8.372;2023-03-14T09:44:10;12.20;99.90
12434;DHT22;6281;49.038;8.372;2023-03-14T09:46:41;12.10;99.90
12434;DHT22;6281;49.038;8.372;2023-03-14T09:49:12;12.00;99.90
12434;DHT22;6281;49.038;8.372;2023-03-14T09:51:42;12.00;99.90
12434;DHT22;6281;49.038;8.372;2023-03-14T09:57:00;12.10;99.90
12434;DHT22;6281;49.038;8.372;2023-03-14T09:59:29;12.10;99.90
12434;DHT22;6281;49.038;8.372;2023-03-14T10:01:58;12.10;99.90
12434;DHT22;6281;49.038;8.372;2023-03-14T10:04:28;12.20;99.90
12434;DHT22;6281;49.038;8.372;2023-03-14T10:06:55;12.00;99.90
12434;DHT22;6281;49.038;8.372;2023-03-14T10:09:24;12.00;99.90
12434;DHT22;6281;49.038;8.372;2023-03-14T10:11:54;11.70;99.90
12434;DHT22;6281;49.038;8.372;2023-03-14T10:14:30;11.50;99.90
12434;DHT22;6281;49.038;8.372;2023-03-14T10:17:05;11.40;99.90
12434;DHT22;6281;49.038;8.372;2023-03-14T10:19:32;11.30;99.90
12434;DHT22;6281;49.038;8.372;2023-03-14T10:22:01;11.20;99.90
12434;DHT22;6281;49.038;8.372;2023-03-14T10:24:32;11.20;99.90
12434;DHT22;6281;49.038;8.372;2023-03-14T10:27:01;11.00;99.90
12434;DHT22;6281;49.038;8.372;2023-03-14T10:29:28;10.80;99.90
12434;DHT22;6281;49.038;8.372;2023-03-14T10:31:59;11.00;99.90
12434;DHT22;6281;49.038;8.372;2023-03-14T10:34:29;11.00;99.90
12434;DHT22;6281;49.038;8.372;2023-03-14T10:36:58;11.00;99.90
12434;DHT22;6281;49.038;8.372;2023-03-14T10:39:45;11.10;99.90
12434;DHT22;6281;49.038;8.372;2023-03-14T10:42:17;11.10;99.90
12434;DHT22;6281;49.038;8.372;2023-03-14T10:44:46;10.60;99.90
12434;DHT22;6281;49.038;8.372;2023-03-14T10:47:18;10.80;99.90
12434;DHT22;6281;49.038;8.372;2023-03-14T10:49:46;10.50;99.90
12434;DHT22;6281;49.038;8.372;2023-03-14T10:52:19;10.10;99.90
12434;DHT22;6281;49.038;8.372;2023-03-14T10:54:54;10.00;99.90
12434;DHT22;6281;49.038;8.372;2023-03-14T10:57:23;10.00;99.90
12434;DHT22;6281;49.038;8.372;2023-03-14T10:59:51;10.00;99.90
12434;DHT22;6281;49.038;8.372;2023-03-14T11:02:34;10.00;99.90
12434;DHT22;6281;49.038;8.372;2023-03-14T11:05:11;10.10;99.90
12434;DHT22;6281;49.038;8.372;2023-03-14T11:07:41;9.90;99.90
12434;DHT22;6281;49.038;8.372;2023-03-14T11:10:17;10.00;99.90
12434;DHT22;6281;49.038;8.372;2023-03-14T11:12:52;9.80;99.90
12434;DHT22;6281;49.038;8.372;2023-03-14T11:15:27;9.80;99.90
12434;DHT22;6281;49.038;8.372;2023-03-14T11:18:13;9.70;99.90
12434;DHT22;6281;49.038;8.372;2023-03-14T11:20:46;9.70;99.90
12434;DHT22;6281;49.038;8.372;2023-03-14T11:23:21;9.80;99.90
12434;DHT22;6281;49.038;8.372;2023-03-14T11:25:56;9.80;99.90
12434;DHT22;6281;49.038;8.372;2023-03-14T11:28:29;10.00;99.90
12434;DHT22;6281;49.038;8.372;2023-03-14T11:31:08;10.20;99.90
12434;DHT22;6281;49.038;8.372;2023-03-14T11:33:39;10.30;99.90
12434;DHT22;6281;49.038;8.372;2023-03-14T11:36:16;10.40;99.90
12434;DHT22;6281;49.038;8.372;2023-03-14T11:38:48;10.10;99.90
12434;DHT22;6281;49.038;8.372;2023-03-14T11:41:20;10.00;99.90
12434;DHT22;6281;49.038;8.372;2023-03-14T11:44:04;9.80;99.90
12434;DHT22;6281;49.038;8.372;2023-03-14T11:46:37;9.60;99.90
12434;DHT22;6281;49.038;8.372;2023-03-14T11:49:09;9.50;99.90
12434;DHT22;6281;49.038;8.372;2023-03-14T11:51:39;9.30;99.90
12434;DHT22;6281;49.038;8.372;2023-03-14T11:54:14;9.30;99.90
12434;DHT22;6281;49.038;8.372;2023-03-14T11:56:47;9.20;99.90
12434;DHT22;6281;49.038;8.372;2023-03-14T11:59:19;9.20;99.90
12434;DHT22;6281;49.038;8.372;2023-03-14T12:01:53;9.20;99.90
12434;DHT22;6281;49.038;8.372;2023-03-14T12:04:38;9.20;99.90
12434;DHT22;6281;49.038;8.372;2023-03-14T12:07:13;9.10;99.90
12434;DHT22;6281;49.038;8.372;2023-03-14T12:09:43;9.20;99.90
12434;DHT22;6281;49.038;8.372;2023-03-14T12:12:13;9.20;99.90
12434;DHT22;6281;49.038;8.372;2023-03-14T12:14:45;9.20;99.90
12434;DHT22;6281;49.038;8.372;2023-03-14T12:17:20;9.30;99.90
12434;DHT22;6281;49.038;8.372;2023-03-14T12:19:47;9.30;99.90
12434;DHT22;6281;49.038;8.372;2023-03-14T12:22:30;9.30;99.90
12434;DHT22;6281;49.038;8.372;2023-03-14T12:25:04;9.50;99.90
12434;DHT22;6281;49.038;8.372;2023-03-14T12:30:31;9.60;99.90
12434;DHT22;6281;49.038;8.372;2023-03-14T12:33:31;9.70;99.90
12434;DHT22;6281;49.038;8.372;2023-03-14T12:36:18;9.90;99.90
12434;DHT22;6281;49.038;8.372;2023-03-14T12:39:04;10.20;99.90
12434;DHT22;6281;49.038;8.372;2023-03-14T12:41:39;10.30;99.90
12434;DHT22;6281;49.038;8.372;2023-03-14T12:44:43;10.60;99.90
12434;DHT22;6281;49.038;8.372;2023-03-14T12:47:53;10.30;99.90
12434;DHT22;6281;49.038;8.372;2023-03-14T12:50:27;10.30;99.90
12434;DHT22;6281;49.038;8.372;2023-03-14T12:53:07;10.20;99.90
12434;DHT22;6281;49.038;8.372;2023-03-14T12:55:44;10.20;99.90
12434;DHT22;6281;49.038;8.372;2023-03-14T12:58:15;10.30;99.90
12434;DHT22;6281;49.038;8.372;2023-03-14T13:00:45;10.20;99.90
12434;DHT22;6281;49.038;8.372;2023-03-14T13:03:18;10.30;99.90
12434;DHT22;6281;49.038;8.372;2023-03-14T13:05:55;10.30;99.90
12434;DHT22;6281;49.038;8.372;2023-03-14T13:08:36;10.30;99.90
12434;DHT22;6281;49.038;8.372;2023-03-14T13:11:06;10.30;99.90
12434;DHT22;6281;49.038;8.372;2023-03-14T13:13:35;10.10;93.50
12434;DHT22;6281;49.038;8.372;2023-03-14T13:16:05;10.20;93.00
12434;DHT22;6281;49.038;8.372;2023-03-14T13:18:36;10.10;92.40
12434;DHT22;6281;49.038;8.372;2023-03-14T13:21:07;10.10;91.60
12434;DHT22;6281;49.038;8.372;2023-03-14T13:23:37;10.10;93.50
12434;DHT22;6281;49.038;8.372;2023-03-14T13:26:10;10.10;93.60
12434;DHT22;6281;49.038;8.372;2023-03-14T13:28:37;10.10;96.10
12434;DHT22;6281;49.038;8.372;2023-03-14T13:31:12;10.00;91.70
12434;DHT22;6281;49.038;8.372;2023-03-14T13:33:44;10.00;84.80
12434;DHT22;6281;49.038;8.372;2023-03-14T13:36:11;9.90;87.90
12434;DHT22;6281;49.038;8.372;2023-03-14T13:38:38;10.00;87.30
12434;DHT22;6281;49.038;8.372;2023-03-14T13:41:06;10.10;84.90
12434;DHT22;6281;49.038;8.372;2023-03-14T13:43:36;10.00;80.00
12434;DHT22;6281;49.038;8.372;2023-03-14T13:46:13;10.00;76.20
12434;DHT22;6281;49.038;8.372;2023-03-14T13:48:44;10.00;77.30
12434;DHT22;6281;49.038;8.372;2023-03-14T13:51:13;9.80;77.00
12434;DHT22;6281;49.038;8.372;2023-03-14T13:53:44;9.80;74.50
12434;DHT22;6281;49.038;8.372;2023-03-14T13:56:12;9.70;73.60
12434;DHT22;6281;49.038;8.372;2023-03-14T13:58:40;9.70;71.50
12434;DHT22;6281;49.038;8.372;2023-03-14T14:01:14;9.80;72.50
12434;DHT22;6281;49.038;8.372;2023-03-14T14:03:44;10.00;71.90
12434;DHT22;6281;49.038;8.372;2023-03-14T14:06:23;10.00;70.00
12434;DHT22;6281;49.038;8.372;2023-03-14T14:08:51;10.00;68.40
12434;DHT22;6281;49.038;8.372;2023-03-14T14:11:30;10.20;67.30
12434;DHT22;6281;49.038;8.372;2023-03-14T14:13:59;10.70;66.90
12434;DHT22;6281;49.038;8.372;2023-03-14T14:16:29;11.00;64.60
12434;DHT22;6281;49.038;8.372;2023-03-14T14:18:57;10.80;64.90
12434;DHT22;6281;49.038;8.372;2023-03-14T14:21:25;11.00;66.10
12434;DHT22;6281;49.038;8.372;2023-03-14T14:23:53;10.70;65.30
12434;DHT22;6281;49.038;8.372;2023-03-14T14:26:20;10.60;65.40
12434;DHT22;6281;49.038;8.372;2023-03-14T14:28:47;11.10;65.10
12434;DHT22;6281;49.038;8.372;2023-03-14T14:31:24;11.20;64.90
12434;DHT22;6281;49.038;8.372;2023-03-14T14:33:57;11.20;64.10
12434;DHT22;6281;49.038;8.372;2023-03-14T14:36:26;11.50;63.20
12434;DHT22;6281;49.038;8.372;2023-03-14T14:38:58;11.40;63.80
12434;DHT22;6281;49.038;8.372;2023-03-14T14:41:30;11.20;62.00
12434;DHT22;6281;49.038;8.372;2023-03-14T14:43:59;11.20;62.80
12434;DHT22;6281;49.038;8.372;2023-03-14T14:46:28;11.30;61.60
12434;DHT22;6281;49.038;8.372;2023-03-14T14:49:02;11.10;63.40
12434;DHT22;6281;49.038;8.372;2023-03-14T14:51:38;11.30;63.70
12434;DHT22;6281;49.038;8.372;2023-03-14T14:54:11;11.40;65.40
12434;DHT22;6281;49.038;8.372;2023-03-14T14:56:38;11.40;65.90
12434;DHT22;6281;49.038;8.372;2023-03-14T14:59:17;10.80;63.40
12434;DHT22;6281;49.038;8.372;2023-03-14T15:01:45;10.60;66.20
12434;DHT22;6281;49.038;8.372;2023-03-14T15:04:15;10.30;67.70
12434;DHT22;6281;49.038;8.372;2023-03-14T15:06:43;10.30;67.50
12434;DHT22;6281;49.038;8.372;2023-03-14T15:09:11;10.20;67.90
12434;DHT22;6281;49.038;8.372;2023-03-14T15:11:38;10.10;68.90
12434;DHT22;6281;49.038;8.372;2023-03-14T15:14:04;10.10;69.90
12434;DHT22;6281;49.038;8.372;2023-03-14T15:16:32;10.30;71.70
12434;DHT22;6281;49.038;8.372;2023-03-14T15:19:00;10.70;72.80
12434;DHT22;6281;49.038;8.372;2023-03-14T15:21:32;10.70;71.20
12434;DHT22;6281;49.038;8.372;2023-03-14T15:23:59;10.50;73.60
12434;DHT22;6281;49.038;8.372;2023-03-14T15:26:27;10.50;77.30
12434;DHT22;6281;49.038;8.372;2023-03-14T15:28:54;10.30;75.50
12434;DHT22;6281;49.038;8.372;2023-03-14T15:31:21;10.50;77.90
12434;DHT22;6281;49.038;8.372;2023-03-14T15:33:48;10.70;84.90
12434;DHT22;6281;49.038;8.372;2023-03-14T15:36:22;10.30;79.30
12434;DHT22;6281;49.038;8.372;2023-03-14T15:38:52;10.20;81.40
12434;DHT22;6281;49.038;8.372;2023-03-14T15:41:19;10.30;86.20
12434;DHT22;6281;49.038;8.372;2023-03-14T15:43:47;10.00;88.10
12434;DHT22;6281;49.038;8.372;2023-03-14T15:46:14;9.90;93.60
12434;DHT22;6281;49.038;8.372;2023-03-14T15:48:43;9.90;99.20
12434;DHT22;6281;49.038;8.372;2023-03-14T15:51:10;9.80;97.60
12434;DHT22;6281;49.038;8.372;2023-03-14T15:53:37;9.70;99.90
12434;DHT22;6281;49.038;8.372;2023-03-14T15:56:06;9.70;99.90
12434;DHT22;6281;49.038;8.372;2023-03-14T15:58:34;9.60;99.90
12434;DHT22;6281;49.038;8.372;2023-03-14T16:01:01;9.60;99.90
12434;DHT22;6281;49.038;8.372;2023-03-14T16:03:28;9.60;99.90
12434;DHT22;6281;49.038;8.372;2023-03-14T16:05:55;9.50;99.90